createdAt,value
2017-08-17T05:31:56.098Z,2172
2017-08-17T05:32:21.581Z,2160
2017-08-17T05:32:47.040Z,2144
2017-08-17T05:33:12.513Z,2136
2017-08-17T05:33:38.037Z,2128
2017-08-17T05:34:03.502Z,2080
2017-08-17T05:34:28.975Z,2016
2017-08-17T05:34:54.435Z,1972
2017-08-17T05:35:19.879Z,1964
2017-08-17T05:35:45.349Z,1988
2017-08-17T05:36:10.800Z,2036
2017-08-17T05:36:36.280Z,2104
2017-08-17T05:37:01.746Z,2172
2017-08-17T05:37:27.220Z,2216
2017-08-17T05:37:52.675Z,2256
2017-08-17T05:38:18.167Z,2268
2017-08-17T05:38:43.620Z,2268
2017-08-17T05:39:09.136Z,2260
2017-08-17T05:39:34.570Z,2252
2017-08-17T05:40:00.088Z,2256
2017-08-17T05:40:25.528Z,2280
2017-08-17T05:40:51.029Z,2364
2017-08-17T05:41:16.477Z,2464
2017-08-17T05:41:41.992Z,2520
2017-08-17T05:42:07.394Z,2552
2017-08-17T05:42:32.915Z,2572
2017-08-17T05:42:58.420Z,2596
2017-08-17T05:43:23.824Z,2632
2017-08-17T05:43:49.280Z,2640
2017-08-17T05:44:14.897Z,2524
2017-08-17T05:44:40.227Z,2384
2017-08-17T05:45:05.690Z,2364
2017-08-17T05:45:31.274Z,2464
2017-08-17T05:45:56.691Z,2604
2017-08-17T05:46:22.169Z,2736
2017-08-17T05:46:47.715Z,2868
2017-08-17T05:47:13.076Z,2944
2017-08-17T05:47:38.520Z,2984
2017-08-17T05:48:04.009Z,2972
2017-08-17T05:48:29.464Z,2904
2017-08-17T05:48:54.918Z,2784
2017-08-17T05:49:20.382Z,2696
2017-08-17T05:49:45.845Z,2788
2017-08-17T05:50:11.333Z,2960
2017-08-17T05:50:36.762Z,3012
2017-08-17T05:51:02.257Z,2932
2017-08-17T05:51:27.771Z,2936
2017-08-17T05:51:53.222Z,2984
2017-08-17T05:52:18.710Z,3052
2017-08-17T05:52:44.127Z,3156
2017-08-17T05:53:09.587Z,3200
2017-08-17T05:53:35.148Z,3228
2017-08-17T05:54:00.601Z,3252
2017-08-17T05:54:26.143Z,3300
2017-08-17T05:54:51.839Z,3312
2017-08-17T05:55:17.434Z,3432
2017-08-17T05:55:42.839Z,3500
2017-08-17T05:56:08.274Z,3564
2017-08-17T05:56:33.728Z,3664
2017-08-17T05:56:59.176Z,3768
2017-08-17T05:57:24.653Z,3856
2017-08-17T05:57:50.127Z,3880
2017-08-17T05:58:15.584Z,3912
2017-08-17T05:58:41.061Z,3924
2017-08-17T05:59:06.572Z,3792
2017-08-17T05:59:32.027Z,3660
2017-08-17T05:59:57.505Z,3664
2017-08-17T06:00:22.964Z,3712
2017-08-17T06:00:48.401Z,3780
2017-08-17T06:01:13.886Z,3876
2017-08-17T06:01:39.349Z,3832
2017-08-17T06:02:04.809Z,3804
2017-08-17T06:02:30.256Z,3972
2017-08-17T06:02:55.720Z,4208
2017-08-17T06:03:21.194Z,4412
2017-08-17T06:03:46.656Z,4436
2017-08-17T06:04:12.131Z,4328
2017-08-17T06:04:37.585Z,4172
2017-08-17T06:05:03.044Z,3876
2017-08-17T06:05:28.501Z,3760
2017-08-17T06:05:53.958Z,3776
2017-08-17T06:06:19.500Z,4004
2017-08-17T06:06:44.954Z,4236
2017-08-17T06:07:10.427Z,4396
2017-08-17T06:07:35.918Z,4504
2017-08-17T06:08:01.448Z,4644
2017-08-17T06:08:26.919Z,4760
2017-08-17T06:08:52.382Z,4800
2017-08-17T06:09:17.859Z,4892
2017-08-17T06:09:43.345Z,4968
2017-08-17T06:10:08.792Z,4992
2017-08-17T06:10:34.246Z,5032
2017-08-17T06:10:59.756Z,5120
2017-08-17T06:11:25.213Z,5232
2017-08-17T06:11:50.696Z,5292
2017-08-17T06:12:16.181Z,5316
2017-08-17T06:12:41.630Z,5388
2017-08-17T06:13:07.072Z,5396
2017-08-17T06:13:32.495Z,5164
2017-08-17T06:13:57.955Z,5080
2017-08-17T06:14:23.442Z,4872
2017-08-17T06:14:48.897Z,4648
2017-08-17T06:15:14.335Z,4612
2017-08-17T06:15:39.823Z,4784
2017-08-17T06:16:05.235Z,4932
2017-08-17T06:16:30.707Z,5196
2017-08-17T06:16:56.160Z,5308
2017-08-17T06:17:21.628Z,5512
2017-08-17T06:17:47.064Z,5172
2017-08-17T06:18:12.530Z,5080
2017-08-17T06:18:38.002Z,4924
2017-08-17T06:19:03.485Z,4768
2017-08-17T06:19:28.947Z,5016
2017-08-17T06:19:54.418Z,4868
2017-08-17T06:20:19.926Z,4780
2017-08-17T06:20:45.321Z,4724
2017-08-17T06:21:10.792Z,4544
2017-08-17T06:21:36.254Z,4480
2017-08-17T06:22:01.712Z,4208
2017-08-17T06:22:27.197Z,4128
2017-08-17T06:22:52.651Z,4100
2017-08-17T06:23:18.134Z,4104
2017-08-17T06:23:43.594Z,4128
2017-08-17T06:24:09.049Z,4116
2017-08-17T06:24:34.522Z,4072
2017-08-17T06:25:00.043Z,4064
2017-08-17T06:25:25.489Z,4044
2017-08-17T06:25:50.954Z,4028
2017-08-17T06:26:16.438Z,4008
2017-08-17T06:26:41.884Z,4000
2017-08-17T06:27:07.347Z,4004
2017-08-17T06:27:32.841Z,4016
2017-08-17T06:27:58.302Z,4028
2017-08-17T06:28:23.767Z,4036
2017-08-17T06:28:49.230Z,4036
2017-08-17T06:29:14.691Z,4052
2017-08-17T06:29:40.190Z,4072
2017-08-17T06:30:05.648Z,4100
2017-08-17T06:30:31.112Z,4128
2017-08-17T06:30:56.551Z,4172
2017-08-17T06:31:22.013Z,4188
2017-08-17T06:31:47.501Z,4200
2017-08-17T06:32:12.962Z,4192
2017-08-17T06:32:38.431Z,4188
2017-08-17T06:33:03.872Z,4180
2017-08-17T06:33:29.343Z,4164
2017-08-17T06:33:54.809Z,4148
2017-08-17T06:34:20.274Z,4128
2017-08-17T06:34:45.735Z,4128
2017-08-17T06:35:11.185Z,4104
2017-08-17T06:35:36.643Z,4132
2017-08-17T06:36:02.104Z,4148
2017-08-17T06:36:27.558Z,4136
2017-08-17T06:36:53.042Z,4076
2017-08-17T06:37:18.491Z,4048
2017-08-17T06:37:43.954Z,3996
2017-08-17T06:38:09.445Z,3964
2017-08-17T06:38:34.877Z,3948
2017-08-17T06:39:00.347Z,3980
2017-08-17T06:39:25.789Z,3968
2017-08-17T06:39:51.248Z,3932
2017-08-17T06:40:16.718Z,3936
2017-08-17T06:40:42.370Z,3968
2017-08-17T06:41:07.636Z,3976
2017-08-17T06:41:33.104Z,3968
2017-08-17T06:41:58.593Z,3936
2017-08-17T06:42:24.072Z,3960
2017-08-17T06:42:49.511Z,3948
2017-08-17T06:43:14.966Z,3940
2017-08-17T06:43:40.444Z,3912
2017-08-17T06:44:05.907Z,3888
2017-08-17T06:44:31.378Z,3864
2017-08-17T06:44:56.881Z,3836
2017-08-17T06:45:22.371Z,3804
2017-08-17T06:45:47.826Z,3764
2017-08-17T06:46:13.280Z,3732
2017-08-17T06:46:38.841Z,3716
2017-08-17T06:47:04.295Z,3712
2017-08-17T06:47:29.784Z,3716
2017-08-17T06:47:55.248Z,3712
2017-08-17T06:48:20.721Z,3712
2017-08-17T06:48:46.202Z,3728
2017-08-17T06:49:11.645Z,3736
2017-08-17T06:49:37.120Z,3752
2017-08-17T06:50:02.582Z,3760
2017-08-17T06:50:28.061Z,3760
2017-08-17T06:50:53.532Z,3768
2017-08-17T06:51:19.008Z,3780
2017-08-17T06:51:44.465Z,3768
2017-08-17T06:52:09.944Z,3760
2017-08-17T06:52:35.395Z,3748
2017-08-17T06:53:00.847Z,3700
2017-08-17T06:53:26.305Z,3676
2017-08-17T06:53:51.779Z,3672
2017-08-17T06:54:17.238Z,3672
2017-08-17T06:54:42.711Z,3696
2017-08-17T06:55:08.170Z,3716
2017-08-17T06:55:33.627Z,3712
2017-08-17T06:55:59.114Z,3724
2017-08-17T06:56:24.586Z,3784
2017-08-17T06:56:50.052Z,3804
2017-08-17T06:57:15.539Z,3836
2017-08-17T06:57:40.991Z,3912
2017-08-17T06:58:06.457Z,3944
2017-08-17T06:58:31.915Z,3968
2017-08-17T06:58:57.386Z,3940
2017-08-17T06:59:22.859Z,3944
2017-08-17T06:59:48.337Z,3928
2017-08-17T07:00:13.783Z,3928
2017-08-17T07:00:39.262Z,3960
2017-08-17T07:01:04.727Z,3980
2017-08-17T07:01:30.207Z,3984
2017-08-17T07:01:55.667Z,3992
2017-08-17T07:02:21.104Z,3968
2017-08-17T07:02:46.574Z,4024
2017-08-17T07:03:12.052Z,4100
2017-08-17T07:03:37.507Z,4196
2017-08-17T07:04:03.017Z,4236
2017-08-17T07:04:28.501Z,4260
2017-08-17T07:04:53.960Z,4272
2017-08-17T07:05:19.456Z,4336
2017-08-17T07:05:44.905Z,4392
2017-08-17T07:06:10.366Z,4460
2017-08-17T07:06:35.852Z,4512
2017-08-17T07:07:01.291Z,4592
2017-08-17T07:07:26.767Z,4684
2017-08-17T07:07:52.218Z,4800
2017-08-17T07:08:17.696Z,4984
2017-08-17T07:08:43.189Z,5108
2017-08-17T07:09:08.635Z,5152
2017-08-17T07:09:34.099Z,5284
2017-08-17T07:09:59.571Z,5320
2017-08-17T07:10:25.029Z,5304
2017-08-17T07:10:50.512Z,5288
2017-08-17T07:11:15.966Z,5296
2017-08-17T07:11:41.414Z,5288
2017-08-17T07:12:06.918Z,5388
2017-08-17T07:12:32.349Z,5432
2017-08-17T07:12:57.807Z,5440
2017-08-17T07:13:23.305Z,5428
2017-08-17T07:13:48.747Z,5388
2017-08-17T07:14:14.195Z,5376
2017-08-17T07:14:39.638Z,5420
2017-08-17T07:15:05.104Z,5268
2017-08-17T07:15:31.098Z,5240
2017-08-17T07:15:56.623Z,5204
2017-08-17T07:16:22.135Z,5076
2017-08-17T07:16:47.605Z,4860
2017-08-17T07:17:13.081Z,4624
2017-08-17T07:17:38.576Z,4480
2017-08-17T07:18:04.040Z,4392
2017-08-17T07:18:29.546Z,4348
2017-08-17T07:18:55.023Z,4348
2017-08-17T07:19:20.594Z,4476
2017-08-17T07:19:46.024Z,4644
2017-08-17T07:20:11.434Z,4912
2017-08-17T07:20:36.918Z,5168
2017-08-17T07:21:02.378Z,5444
2017-08-17T07:21:27.966Z,5572
2017-08-17T07:21:53.499Z,5556
2017-08-17T07:22:18.926Z,5624
2017-08-17T07:22:44.421Z,5688
2017-08-17T07:23:09.885Z,5700
2017-08-17T07:23:35.351Z,5824
2017-08-17T07:24:00.769Z,5912
2017-08-17T07:24:26.216Z,5924
2017-08-17T07:24:51.679Z,6036
2017-08-17T07:25:17.166Z,6072
2017-08-17T07:25:42.739Z,6104
2017-08-17T07:26:08.219Z,6180
2017-08-17T07:26:33.630Z,6476
2017-08-17T07:26:59.120Z,6768
2017-08-17T07:27:24.652Z,7008
2017-08-17T07:27:50.030Z,7148
2017-08-17T07:28:15.492Z,7228
2017-08-17T07:28:40.936Z,7208
2017-08-17T07:29:06.418Z,7032
2017-08-17T07:29:31.836Z,7076
2017-08-17T07:29:57.367Z,6884
2017-08-17T07:30:22.719Z,6956
2017-08-17T07:30:48.355Z,6840
2017-08-17T07:31:13.845Z,6772
2017-08-17T07:31:39.326Z,6800
2017-08-17T07:32:04.776Z,6420
2017-08-17T07:32:30.280Z,6216
2017-08-17T07:32:55.733Z,6140
2017-08-17T07:33:21.146Z,6056
2017-08-17T07:33:46.654Z,5980
2017-08-17T07:34:12.080Z,5904
2017-08-17T07:34:37.603Z,5820
2017-08-17T07:35:03.028Z,5748
2017-08-17T07:35:28.491Z,5676
2017-08-17T07:35:53.967Z,5676
2017-08-17T07:36:19.412Z,5676
2017-08-17T07:36:44.889Z,5732
2017-08-17T07:37:10.348Z,5808
2017-08-17T07:37:35.970Z,5928
2017-08-17T07:38:01.512Z,6080
2017-08-17T07:38:27.042Z,6232
2017-08-17T07:38:52.458Z,6368
2017-08-17T07:39:17.897Z,6476
2017-08-17T07:39:43.374Z,6552
2017-08-17T07:40:08.891Z,6628
2017-08-17T07:40:34.318Z,6680
2017-08-17T07:40:59.779Z,6732
2017-08-17T07:41:25.237Z,6788
2017-08-17T07:41:50.687Z,6512
2017-08-17T07:42:16.264Z,6412
2017-08-17T07:42:41.696Z,6364
2017-08-17T07:43:07.247Z,6212
2017-08-17T07:43:32.748Z,6128
2017-08-17T07:43:58.181Z,6064
2017-08-17T07:44:23.669Z,5852
2017-08-17T07:44:49.077Z,5796
2017-08-17T07:45:14.533Z,5740
2017-08-17T07:45:40.025Z,5644
2017-08-17T07:46:05.483Z,5640
2017-08-17T07:46:30.932Z,5764
2017-08-17T07:46:56.384Z,6032
2017-08-17T07:47:21.845Z,6224
2017-08-17T07:47:47.307Z,6296
2017-08-17T07:48:12.782Z,6440
2017-08-17T07:48:38.254Z,6416
2017-08-17T07:49:03.709Z,6548
2017-08-17T07:49:29.201Z,6524
2017-08-17T07:49:54.680Z,6556
2017-08-17T07:50:20.126Z,6488
2017-08-17T07:50:45.609Z,6652
2017-08-17T07:51:11.164Z,6692
2017-08-17T07:51:36.540Z,6724
2017-08-17T07:52:02.045Z,6768
2017-08-17T07:52:27.511Z,6880
2017-08-17T07:52:52.970Z,6908
2017-08-17T07:53:18.432Z,6968
2017-08-17T07:53:43.884Z,7024
2017-08-17T07:54:09.353Z,7072
2017-08-17T07:54:34.882Z,7072
2017-08-17T07:55:00.286Z,7028
2017-08-17T07:55:25.830Z,7100
2017-08-17T07:55:51.268Z,7260
2017-08-17T07:56:16.687Z,7340
2017-08-17T07:56:42.163Z,7396
2017-08-17T07:57:07.641Z,7444
2017-08-17T07:57:33.139Z,7456
2017-08-17T07:57:58.563Z,7512
2017-08-17T07:58:23.980Z,7704
2017-08-17T07:58:49.479Z,7560
2017-08-17T07:59:14.955Z,7424
2017-08-17T07:59:40.403Z,7548
2017-08-17T08:00:05.923Z,7464
2017-08-17T08:00:31.352Z,7580
2017-08-17T08:00:56.803Z,7560
2017-08-17T08:01:22.283Z,7464
2017-08-17T08:01:47.720Z,7476
2017-08-17T08:02:13.184Z,7544
2017-08-17T08:02:38.607Z,7596
2017-08-17T08:03:04.091Z,7608
2017-08-17T08:03:29.636Z,7612
2017-08-17T08:03:55.020Z,7608
2017-08-17T08:04:20.471Z,7604
2017-08-17T08:04:45.912Z,7612
2017-08-17T08:05:11.427Z,7624
2017-08-17T08:05:36.802Z,7608
2017-08-17T08:06:02.347Z,7600
2017-08-17T08:06:27.764Z,7576
2017-08-17T08:06:53.233Z,7548
2017-08-17T08:07:18.687Z,7500
2017-08-17T08:07:44.172Z,7468
2017-08-17T08:08:09.581Z,7476
2017-08-17T08:08:35.047Z,7440
2017-08-17T08:09:00.556Z,7480
2017-08-17T08:09:25.981Z,7500
2017-08-17T08:09:51.446Z,7444
2017-08-17T08:10:16.902Z,7436
2017-08-17T08:10:42.441Z,7448
2017-08-17T08:11:07.881Z,7448
2017-08-17T08:11:33.320Z,7428
2017-08-17T08:11:58.797Z,7392
2017-08-17T08:12:24.211Z,7352
2017-08-17T08:12:49.718Z,7316
2017-08-17T08:13:15.154Z,7276
2017-08-17T08:13:40.607Z,7228
2017-08-17T08:14:06.183Z,7172
2017-08-17T08:14:31.694Z,7108
2017-08-17T08:14:57.126Z,7044
2017-08-17T08:15:22.517Z,6984
2017-08-17T08:15:48.025Z,6964
2017-08-17T08:16:13.664Z,6964
2017-08-17T08:16:39.112Z,7024
2017-08-17T08:17:04.574Z,7092
2017-08-17T08:17:30.060Z,7168
2017-08-17T08:17:55.521Z,7228
2017-08-17T08:18:20.987Z,7276
2017-08-17T08:18:46.446Z,7292
2017-08-17T08:19:11.911Z,7288
2017-08-17T08:19:37.382Z,7268
2017-08-17T08:20:02.852Z,7248
2017-08-17T08:20:28.288Z,7224
2017-08-17T08:20:53.841Z,7196
2017-08-17T08:21:19.356Z,7168
2017-08-17T08:21:44.837Z,7148
2017-08-17T08:22:10.303Z,7104
2017-08-17T08:22:35.750Z,7072
2017-08-17T08:23:01.255Z,7040
2017-08-17T08:23:26.710Z,7020
2017-08-17T08:23:52.185Z,7000
2017-08-17T08:24:17.696Z,7000
2017-08-17T08:24:43.198Z,7000
2017-08-17T08:25:08.667Z,7004
2017-08-17T08:25:34.069Z,6988
2017-08-17T08:25:59.534Z,6976
2017-08-17T08:26:25.023Z,7012
2017-08-17T08:26:50.497Z,7024
2017-08-17T08:27:15.931Z,7024
2017-08-17T08:27:41.422Z,7052
2017-08-17T08:28:06.876Z,7088
2017-08-17T08:28:32.316Z,7072
2017-08-17T08:28:57.779Z,7104
2017-08-17T08:29:23.273Z,7064
2017-08-17T08:29:48.689Z,7088
2017-08-17T08:30:14.294Z,7112
2017-08-17T08:30:39.699Z,7088
2017-08-17T08:31:05.164Z,7100
2017-08-17T08:31:30.654Z,7116
2017-08-17T08:31:56.143Z,7152
2017-08-17T08:32:21.596Z,7208
2017-08-17T08:32:47.049Z,7200
2017-08-17T08:33:12.497Z,7196
2017-08-17T08:33:37.993Z,7228
2017-08-17T08:34:03.451Z,7256
2017-08-17T08:34:28.939Z,7300
2017-08-17T08:34:54.457Z,7388
2017-08-17T08:35:19.902Z,7472
2017-08-17T08:35:45.358Z,7568
2017-08-17T08:36:10.825Z,7620
2017-08-17T08:36:36.255Z,7696
2017-08-17T08:37:01.732Z,7768
2017-08-17T08:37:27.182Z,7820
2017-08-17T08:37:52.632Z,7868
2017-08-17T08:38:18.102Z,7924
2017-08-17T08:38:43.552Z,7940
2017-08-17T08:39:09.073Z,7896
2017-08-17T08:39:34.537Z,7788
2017-08-17T08:40:00.070Z,7656
2017-08-17T08:40:25.428Z,7620
2017-08-17T08:40:50.898Z,7616
2017-08-17T08:41:16.360Z,7588
2017-08-17T08:41:41.883Z,7628
2017-08-17T08:42:07.396Z,7668
2017-08-17T08:42:32.896Z,7708
2017-08-17T08:42:58.349Z,7752
2017-08-17T08:43:23.775Z,7684
2017-08-17T08:43:49.265Z,7620
2017-08-17T08:44:14.751Z,7560
2017-08-17T08:44:40.204Z,7488
2017-08-17T08:45:05.705Z,7412
2017-08-17T08:45:31.201Z,7344
2017-08-17T08:45:56.722Z,7284
2017-08-17T08:46:22.141Z,7264
2017-08-17T08:46:47.634Z,7252
2017-08-17T08:47:13.097Z,7264
2017-08-17T08:47:38.591Z,7296
2017-08-17T08:48:04.035Z,7360
2017-08-17T08:48:29.586Z,7504
2017-08-17T08:48:55.007Z,7548
2017-08-17T08:49:20.501Z,7460
2017-08-17T08:49:46.083Z,7196
2017-08-17T08:50:11.466Z,6708
2017-08-17T08:50:36.925Z,6120
2017-08-17T08:51:02.390Z,5644
2017-08-17T08:51:27.833Z,5344
2017-08-17T08:51:53.300Z,5212
2017-08-17T08:52:18.807Z,5200
2017-08-17T08:52:44.294Z,5208
2017-08-17T08:53:09.854Z,5184
2017-08-17T08:53:35.178Z,5168
2017-08-17T08:54:00.677Z,5276
2017-08-17T08:54:26.161Z,5544
2017-08-17T08:54:51.613Z,5836
2017-08-17T08:55:17.102Z,6032
2017-08-17T08:55:42.549Z,6028
2017-08-17T08:56:08.063Z,5996
2017-08-17T08:56:33.493Z,5940
2017-08-17T08:56:58.978Z,5912
2017-08-17T08:57:24.468Z,6016
2017-08-17T08:57:49.994Z,6300
2017-08-17T08:58:15.481Z,6652
2017-08-17T08:58:40.952Z,7008
2017-08-17T08:59:06.363Z,7240
2017-08-17T08:59:31.853Z,7244
2017-08-17T08:59:57.237Z,6952
2017-08-17T09:00:22.779Z,6472
2017-08-17T09:00:48.182Z,6120
2017-08-17T09:01:13.661Z,5964
2017-08-17T09:01:39.231Z,5932
2017-08-17T09:02:04.597Z,6004
2017-08-17T09:02:30.066Z,6040
2017-08-17T09:02:55.615Z,5716
2017-08-17T09:03:21.071Z,5148
2017-08-17T09:03:46.547Z,4528
2017-08-17T09:04:12.012Z,4076
2017-08-17T09:04:37.505Z,3804
2017-08-17T09:05:03.031Z,3672
2017-08-17T09:05:28.533Z,3724
2017-08-17T09:05:54.059Z,3848
2017-08-17T09:06:19.606Z,3856
2017-08-17T09:06:45.090Z,3776
2017-08-17T09:07:10.595Z,3900
2017-08-17T09:07:36.033Z,4184
2017-08-17T09:08:01.499Z,4408
2017-08-17T09:08:27.021Z,4528
2017-08-17T09:08:52.461Z,4832
2017-08-17T09:09:18.030Z,5144
2017-08-17T09:09:43.414Z,5644
2017-08-17T09:10:08.884Z,6212
2017-08-17T09:10:34.408Z,6576
2017-08-17T09:10:59.821Z,6736
2017-08-17T09:11:25.324Z,6872
2017-08-17T09:11:50.804Z,7112
2017-08-17T09:12:16.279Z,7324
2017-08-17T09:12:41.785Z,7456
2017-08-17T09:13:07.178Z,7444
2017-08-17T09:13:32.771Z,7324
2017-08-17T09:13:58.283Z,7144
2017-08-17T09:14:23.705Z,6980
2017-08-17T09:14:49.218Z,6804
2017-08-17T09:15:14.681Z,6676
2017-08-17T09:15:40.172Z,6608
2017-08-17T09:16:05.631Z,6648
2017-08-17T09:16:31.073Z,6848
2017-08-17T09:16:56.553Z,7204
2017-08-17T09:17:22.069Z,7576
2017-08-17T09:17:47.501Z,7984
2017-08-17T09:18:12.990Z,8284
2017-08-17T09:18:38.448Z,8488
2017-08-17T09:19:03.955Z,8640
2017-08-17T09:19:29.424Z,8748
2017-08-17T09:19:54.879Z,8796
2017-08-17T09:20:20.303Z,8788
2017-08-17T09:20:45.852Z,8796
2017-08-17T09:21:11.275Z,8756
2017-08-17T09:21:36.744Z,8672
2017-08-17T09:22:02.262Z,8552
2017-08-17T09:22:27.745Z,8468
2017-08-17T09:22:53.254Z,8388
2017-08-17T09:23:18.673Z,8316
2017-08-17T09:23:44.346Z,8228
2017-08-17T09:24:09.832Z,8136
2017-08-17T09:24:35.248Z,8004
2017-08-17T09:25:00.731Z,7856
2017-08-17T09:25:26.192Z,7676
2017-08-17T09:25:51.707Z,7528
2017-08-17T09:26:17.169Z,7396
2017-08-17T09:26:42.625Z,7272
2017-08-17T09:27:08.084Z,7180
2017-08-17T09:27:33.567Z,7116
2017-08-17T09:27:59.023Z,7088
2017-08-17T09:28:24.449Z,7116
2017-08-17T09:28:49.908Z,7160
2017-08-17T09:29:15.430Z,7184
2017-08-17T09:29:40.929Z,7152
2017-08-17T09:30:06.313Z,7140
2017-08-17T09:30:31.867Z,7172
2017-08-17T09:30:57.362Z,7248
2017-08-17T09:31:22.852Z,7340
2017-08-17T09:31:48.304Z,7404
2017-08-17T09:32:13.866Z,7456
2017-08-17T09:32:39.268Z,7484
2017-08-17T09:33:04.742Z,7492
2017-08-17T09:33:30.195Z,7484
2017-08-17T09:33:55.727Z,7452
2017-08-17T09:34:21.178Z,7364
2017-08-17T09:34:46.586Z,7264
2017-08-17T09:35:12.133Z,7120
2017-08-17T09:35:37.644Z,6996
2017-08-17T09:36:03.137Z,6900
2017-08-17T09:36:28.539Z,6812
2017-08-17T09:36:54.016Z,6768
2017-08-17T09:37:19.482Z,6736
2017-08-17T09:37:45.121Z,6724
2017-08-17T09:38:10.666Z,6736
2017-08-17T09:38:36.118Z,6788
2017-08-17T09:39:01.566Z,6848
2017-08-17T09:39:27.072Z,6872
2017-08-17T09:39:52.511Z,6864
2017-08-17T09:40:17.952Z,6868
2017-08-17T09:40:43.410Z,6948
2017-08-17T09:41:09.009Z,7072
2017-08-17T09:41:34.483Z,7276
2017-08-17T09:41:59.980Z,7456
2017-08-17T09:42:25.376Z,7628
2017-08-17T09:42:50.890Z,7804
2017-08-17T09:43:16.306Z,7960
2017-08-17T09:43:41.774Z,8060
2017-08-17T09:44:07.297Z,8088
2017-08-17T09:44:32.801Z,8020
2017-08-17T09:44:58.237Z,7860
2017-08-17T09:45:23.729Z,7652
2017-08-17T09:45:49.232Z,7472
2017-08-17T09:46:14.667Z,7340
2017-08-17T09:46:40.341Z,7236
2017-08-17T09:47:05.569Z,7180
2017-08-17T09:47:30.985Z,7168
2017-08-17T09:47:56.457Z,7184
2017-08-17T09:48:21.887Z,7192
2017-08-17T09:48:47.366Z,7192
2017-08-17T09:49:12.829Z,7188
2017-08-17T09:49:38.312Z,7168
2017-08-17T09:50:03.775Z,7144
2017-08-17T09:50:29.225Z,7104
2017-08-17T09:50:54.662Z,7040
2017-08-17T09:51:20.997Z,7012
2017-08-17T09:51:45.933Z,7028
2017-08-17T09:52:11.353Z,7072
2017-08-17T09:52:36.835Z,7144
2017-08-17T09:53:02.342Z,7244
2017-08-17T09:53:27.741Z,7336
2017-08-17T09:53:53.233Z,7396
2017-08-17T09:54:18.720Z,7372
2017-08-17T09:54:44.224Z,7244
2017-08-17T09:55:09.693Z,7052
2017-08-17T09:55:35.202Z,6816
2017-08-17T09:56:00.718Z,6556
2017-08-17T09:56:26.158Z,6296
2017-08-17T09:56:51.663Z,6112
2017-08-17T09:57:17.128Z,5988
2017-08-17T09:57:42.610Z,5936
2017-08-17T09:58:08.097Z,5928
2017-08-17T09:58:33.591Z,5928
2017-08-17T09:58:59.058Z,5916
2017-08-17T09:59:24.485Z,5880
2017-08-17T09:59:50.006Z,5804
2017-08-17T10:00:15.512Z,5712
2017-08-17T10:00:40.935Z,5624
2017-08-17T10:01:06.466Z,5568
2017-08-17T10:01:31.932Z,5536
2017-08-17T10:01:57.468Z,5500
2017-08-17T10:02:22.908Z,5480
2017-08-17T10:02:48.401Z,5472
2017-08-17T10:03:13.874Z,5488
2017-08-17T10:03:39.323Z,5500
2017-08-17T10:04:04.794Z,5512
2017-08-17T10:04:30.221Z,5516
2017-08-17T10:04:55.688Z,5508
2017-08-17T10:05:21.161Z,5516
2017-08-17T10:05:46.645Z,5544
2017-08-17T10:06:12.107Z,5660
2017-08-17T10:06:37.556Z,5880
2017-08-17T10:07:03.235Z,6156
2017-08-17T10:07:28.654Z,6420
2017-08-17T10:07:54.093Z,6656
2017-08-17T10:08:19.604Z,6880
2017-08-17T10:08:45.052Z,7108
2017-08-17T10:09:10.570Z,7320
2017-08-17T10:09:36.072Z,7524
2017-08-17T10:10:01.510Z,7764
2017-08-17T10:10:27.025Z,8040
2017-08-17T10:10:52.380Z,8348
2017-08-17T10:11:17.851Z,8648
2017-08-17T10:11:43.407Z,8924
2017-08-17T10:12:08.829Z,9184
2017-08-17T10:12:34.361Z,9412
2017-08-17T10:12:59.823Z,9548
2017-08-17T10:13:25.308Z,9560
2017-08-17T10:13:50.812Z,9444
2017-08-17T10:14:16.309Z,9260
2017-08-17T10:14:41.734Z,9092
2017-08-17T10:15:07.187Z,9008
2017-08-17T10:15:32.765Z,9004
2017-08-17T10:15:58.232Z,9028
2017-08-17T10:16:23.682Z,9032
2017-08-17T10:16:49.291Z,8984
2017-08-17T10:17:14.687Z,8904
2017-08-17T10:17:40.081Z,8836
2017-08-17T10:18:05.646Z,8748
2017-08-17T10:18:31.133Z,8652
2017-08-17T10:18:56.611Z,8512
2017-08-17T10:19:22.126Z,8340
2017-08-17T10:19:47.518Z,8120
2017-08-17T10:20:12.991Z,7836
2017-08-17T10:20:38.598Z,7508
2017-08-17T10:21:03.992Z,7192
2017-08-17T10:21:29.458Z,6920
2017-08-17T10:21:54.915Z,6752
2017-08-17T10:22:20.386Z,6740
2017-08-17T10:22:45.902Z,6800
2017-08-17T10:23:11.362Z,6880
2017-08-17T10:23:36.843Z,6956
2017-08-17T10:24:02.458Z,7040
2017-08-17T10:24:27.920Z,7156
2017-08-17T10:24:53.412Z,7228
2017-08-17T10:25:18.886Z,7248
2017-08-17T10:25:44.343Z,7228
2017-08-17T10:26:09.806Z,7228
2017-08-17T10:26:35.264Z,7240
2017-08-17T10:27:00.746Z,7292
2017-08-17T10:27:26.146Z,7356
2017-08-17T10:27:51.672Z,7468
2017-08-17T10:28:17.152Z,7584
2017-08-17T10:28:42.600Z,7684
2017-08-17T10:29:08.131Z,7752
2017-08-17T10:29:33.700Z,7780
2017-08-17T10:29:59.040Z,7760
2017-08-17T10:30:24.472Z,7740
2017-08-17T10:30:49.925Z,7704
2017-08-17T10:31:15.439Z,7684
2017-08-17T10:31:40.902Z,7684
2017-08-17T10:32:06.381Z,7676
2017-08-17T10:32:31.857Z,7676
2017-08-17T10:32:57.225Z,7696
2017-08-17T10:33:22.749Z,7744
2017-08-17T10:33:48.236Z,7832
2017-08-17T10:34:13.878Z,7908
2017-08-17T10:34:39.293Z,7936
2017-08-17T10:35:04.777Z,7888
2017-08-17T10:35:30.300Z,7792
2017-08-17T10:35:55.752Z,7684
2017-08-17T10:36:21.339Z,7572
2017-08-17T10:36:46.787Z,7480
2017-08-17T10:37:12.249Z,7424
2017-08-17T10:37:37.759Z,7388
2017-08-17T10:38:03.156Z,7360
2017-08-17T10:38:28.649Z,7304
2017-08-17T10:38:54.146Z,7192
2017-08-17T10:39:19.613Z,7024
2017-08-17T10:39:45.118Z,6812
2017-08-17T10:40:10.582Z,6576
2017-08-17T10:40:36.122Z,6344
2017-08-17T10:41:01.557Z,6156
2017-08-17T10:41:27.005Z,6000
2017-08-17T10:41:52.504Z,5884
2017-08-17T10:42:18.052Z,5808
2017-08-17T10:42:43.450Z,5760
2017-08-17T10:43:08.945Z,5732
2017-08-17T10:43:34.404Z,5748
2017-08-17T10:43:59.878Z,5760
2017-08-17T10:44:25.334Z,5748
2017-08-17T10:44:50.816Z,5696
2017-08-17T10:45:16.252Z,5620
2017-08-17T10:45:41.709Z,5544
2017-08-17T10:46:07.212Z,5472
2017-08-17T10:46:32.669Z,5384
2017-08-17T10:46:58.278Z,5316
2017-08-17T10:47:23.907Z,5264
2017-08-17T10:47:49.254Z,5248
2017-08-17T10:48:14.740Z,5256
2017-08-17T10:48:40.230Z,5272
2017-08-17T10:49:05.669Z,5288
2017-08-17T10:49:31.138Z,5308
2017-08-17T10:49:56.610Z,5296
2017-08-17T10:50:22.092Z,5236
2017-08-17T10:50:47.558Z,5148
2017-08-17T10:51:13.110Z,5040
2017-08-17T10:51:38.511Z,4912
2017-08-17T10:52:03.971Z,4820
2017-08-17T10:52:29.448Z,4748
2017-08-17T10:52:54.881Z,4736
2017-08-17T10:53:20.470Z,4772
2017-08-17T10:53:45.930Z,4840
2017-08-17T10:54:11.410Z,4924
2017-08-17T10:54:36.852Z,5012
2017-08-17T10:55:02.351Z,5096
2017-08-17T10:55:27.856Z,5180
2017-08-17T10:55:53.322Z,5264
2017-08-17T10:56:18.821Z,5324
2017-08-17T10:56:44.289Z,5372
2017-08-17T10:57:09.799Z,5436
2017-08-17T10:57:35.373Z,5468
2017-08-17T10:58:00.801Z,5464
2017-08-17T10:58:26.349Z,5476
2017-08-17T10:58:51.849Z,5456
2017-08-17T10:59:17.312Z,5456
2017-08-17T10:59:42.781Z,5488
2017-08-17T11:00:08.296Z,5508
2017-08-17T11:00:33.751Z,5520
2017-08-17T11:00:59.166Z,5500
2017-08-17T11:01:24.683Z,5496
2017-08-17T11:01:50.150Z,5552
2017-08-17T11:02:15.595Z,5684
2017-08-17T11:02:41.064Z,5900
2017-08-17T11:03:06.563Z,6204
2017-08-17T11:03:31.995Z,6548
2017-08-17T11:03:57.513Z,6860
2017-08-17T11:04:22.930Z,7128
2017-08-17T11:04:48.359Z,7324
2017-08-17T11:05:13.924Z,7432
2017-08-17T11:05:39.342Z,7476
2017-08-17T11:06:04.832Z,7436
2017-08-17T11:06:30.223Z,7396
2017-08-17T11:06:55.806Z,7316
2017-08-17T11:07:21.207Z,7232
2017-08-17T11:07:46.690Z,7168
2017-08-17T11:08:12.196Z,7168
2017-08-17T11:08:37.658Z,7216
2017-08-17T11:09:03.184Z,7312
2017-08-17T11:09:28.625Z,7416
2017-08-17T11:09:54.089Z,7524
2017-08-17T11:10:19.606Z,7580
2017-08-17T11:10:45.023Z,7568